Aviation Digital Data Service (ADDS)

Output produced by METARs form (1707 UTC 16 June 2019)
found at http://www.aviationweather.gov/metar/data/
 
KMAF 161138Z 1612/1712 22011KT P6SM SKC 
     FM161600 34008KT P6SM SCT250 
     FM170000 04010KT P6SM SCT250
       
KMBG 161124Z 1612/1712 34006KT P6SM FEW250 
     FM161800 32008KT P6SM FEW250 
     FM162300 36006KT P6SM SCT150 
     FM170700 05005KT P6SM BKN120 
     FM171000 VRB03KT P6SM BKN090
       
KMBS 161139Z 1612/1712 06005KT P6SM VCSH BKN035 OVC050 
     FM161600 05011KT P6SM VCSH OVC060 
     FM162200 03011KT P6SM OVC040 
     FM170200 03005KT P6SM SCT035 BKN050
       
KMCB 161142Z 1612/1712 00000KT P6SM OVC009 
     FM161300 VRB03KT P6SM BKN003 
     FM161800 VRB03KT P6SM BKN050 
     FM162200 19008KT P6SM VCTS BKN050CB 
     FM170000 18005KT P6SM FEW250
       
KMCC 161136Z 1612/1712 16008KT P6SM BKN007 
     FM161600 18008KT P6SM SKC
       
KMCE 161120Z 1612/1712 29008KT P6SM SCT250
       
TAF KMCF 161600Z 1616/1722 08006KT 9999 SCT020 SCT160 QNH3002INS 
     BECMG 1617/1618 12009KT 8000 -SHRA VCTS BKN030CB BKN140 QNH2993INS 
     TEMPO 1618/1622 12010G15KT 6000 -TSRA BKN020CB 
     BECMG 1622/1623 12006KT 9999 NSW BKN020 QNH2993INS 
     BECMG 1705/1706 11004KT 9999 BKN010 QNH2994INS 
     BECMG 1712/1713 15009KT 9999 SCT020 BKN140 QNH2995INS 
     BECMG 1717/1718 14009KT 8000 -SHRA BKN030 OVC120 QNH2994INS TX31/1619Z
TN23/1710Z
       
KMCI 161120Z 1612/1712 24007KT P6SM OVC200 
     FM161500 35008KT P6SM SCT200 
     FM170100 04006KT P6SM BKN100
       
KMCK 161120Z 1612/1712 VRB05KT P6SM FEW200 
     FM161800 14009KT P6SM SCT200 
     FM170200 11009KT P6SM VCTS BKN070CB 
     FM170700 VRB04KT P6SM BKN080
       
KMCN 161134Z 1612/1712 13004KT P6SM FEW250 
     FM161500 24004KT P6SM SCT040 
     FM161800 20007KT P6SM SCT050 
     FM162200 17005KT P6SM SCT050 
     FM170100 VRB03KT P6SM BKN250
       
KMCO 161456Z 1615/1718 13006KT P6SM VCSH SCT030 BKN150 
     TEMPO 1616/1618 3SM SHRA BKN030 
     FM161800 13008KT P6SM VCTS SCT030CB BKN050 
     TEMPO 1618/1621 3SM TSRA BKN030CB 
     FM162300 13006KT P6SM FEW030 BKN100 OVC250 
     FM171400 12007KT P6SM VCSH SCT030 BKN050 
     TEMPO 1715/1718 3SM SHRA BKN030
       
KMCW 161508Z 1615/1712 07006KT P6SM OVC009 
     FM161800 03004KT P6SM BKN060 
     FM170800 13004KT 5SM BR OVC050
       
KMDT 161540Z 1616/1712 18005KT P6SM VCSH BKN050 OVC100 
     FM161800 25008G15KT P6SM VCSH BKN040 
     FM170500 19005KT 5SM -SHRA BR BKN035
       
KMDW 161656Z 1617/1718 01010KT 6SM BR OVC007 
     FM162100 02010KT P6SM OVC012 
     FM170100 03008KT 4SM BR BKN007 
     FM170500 03007KT 3SM BR BKN003 
     TEMPO 1709/1712 2SM BR BKN002 
     FM171300 03006KT P6SM BKN010
       
KMEI 161120Z 1612/1712 00000KT P6SM SKC 
     FM161400 22006KT P6SM BKN040
       
KMEM 161506Z 1615/1718 21012G20KT P6SM BKN040 BKN150 
     FM161800 21013G19KT P6SM VCTS BKN045CB OVC150 
     FM162300 19005KT P6SM SCT050 SCT150 
     FM171400 18007KT P6SM BKN150
       
KMER 161120Z 1612/1712 30008KT P6SM SCT250
       
KMFE 161414Z 1614/1712 14012G17KT P6SM SCT020 
     TEMPO 1614/1616 BKN020 
     FM161600 15014G20KT P6SM SCT035 BKN050 
     FM161800 15016G24KT P6SM SCT030 SCT050 
     FM170300 13010G15KT P6SM SCT150
       
KMFR 161127Z 1612/1712 VRB03KT P6SM SKC 
     FM162100 32008KT P6SM SKC 
     FM162300 32010KT P6SM SKC 
     FM170500 35004KT P6SM SKC
       
TAF KMGE 161300Z 1613/1719 24009KT 9999 FEW020 SCT250 QNH3000INS 
     BECMG 1614/1615 23012KT 9999 VCSH SCT040 BKN250 QNH2995INS 
     BECMG 1701/1702 19006KT 9999 BKN250 QNH3001INS 
     BECMG 1713/1714 22006KT 9999 VCSH BKN030 BKN250 QNH3000INS TX32/1621Z
TN21/1712Z
       
KMGM 161124Z 1612/1712 12003KT P6SM FEW050 SCT250 
     FM161300 20006KT P6SM BKN050 
     FM170000 15002KT P6SM BKN050
       
KMGW 161432Z 1615/1712 19008KT P6SM VCSH SCT020 BKN040 
     FM161600 25007KT 6SM -SHRA VCTS BKN015CB 
     FM161800 24007KT P6SM BKN025 
     FM170500 VRB03KT P6SM -SHRA VCTS OVC025CB 
     FM170800 VRB03KT 5SM BR VCSH BKN010
       
KMHK 161121Z 1612/1712 03006KT P6SM SCT250 AMD NOT SKED
       
KMHR 161136Z 1612/1712 15007KT P6SM OVC007 
     FM161600 20007KT P6SM SKC AMD NOT SKED
       
KMHT 161120Z 1612/1712 18005KT P6SM SCT030 BKN100 
     FM161300 19005KT 5SM -RA BKN020 OVC030 
     FM162100 VRB03KT P6SM BKN030 
     FM170500 34003KT 6SM BR OVC015
       
KMIA 161523Z 1615/1718 VRB05KT P6SM SHRA VCTS SCT025CB BKN040 BKN110 
     TEMPO 1615/1618 3SM TSRA BKN020CB BKN040 OVC070 
     FM170000 VRB05KT P6SM VCSH SCT020 BKN040 BKN120 
     FM171400 13008KT P6SM VCSH SCT020 BKN040
       
TAF KMIB 161655Z 1617/1723 34012G18KT 9000 -DZ SCT005 BKN008 OVC020 QNH2990INS 
     BECMG 1621/1622 02012G18KT 9999 NSW FEW005 SCT008 BKN020 OVC030 QNH2995INS 
     BECMG 1718/1719 01010KT 9999 VCSH SCT020 BKN050 QNH3001INS TX16/1622Z
TN08/1712Z
       
KMIV 161120Z 1612/1712 21010KT P6SM BKN120 
     FM161800 24010G18KT P6SM BKN060 
     FM162200 25010G18KT P6SM VCTS BKN050CB 
     FM162300 26010KT 4SM TSRA OVC050CB 
     FM170200 24005KT P6SM VCSH BKN050
       
KMKE 161500Z 1615/1718 04010KT 6SM BR VCSH BKN007 OVC012 
     FM161800 03010KT P6SM OVC012 
     FM170100 02008KT P6SM OVC015 
     FM171400 04007KT 3SM BR OVC023 
     FM171600 05007KT 6SM BR BKN035
       
KMKL 161120Z 1612/1712 16004KT P6SM SCT250 
     FM161800 22012G19KT P6SM VCTS BKN050CB BKN150 
     FM170200 19006KT P6SM VCSH BKN050
       
KMKT 161511Z 1615/1712 08006KT P6SM OVC008 
     FM161700 09006KT P6SM BKN015 OVC035 
     FM161900 11005KT P6SM SCT020 BKN040 
     FM162300 13006KT P6SM SCT070 
     FM170900 VRB03KT 5SM BR SCT010
       
KMLB 161524Z 1615/1712 13007KT P6SM VCTS SCT025CB BKN060 
     TEMPO 1615/1617 3SM TSRA BKN025CB BKN040 
     FM161700 12010KT P6SM VCTS SCT030CB BKN080 
     TEMPO 1617/1618 5SM -TSRA BKN030CB 
     FM162100 15008KT P6SM SCT035 BKN250
       
KMLI 161700Z 1617/1712 36007KT P6SM OVC010 
     FM170000 05006KT P6SM SCT040
       
KMLS 161124Z 1612/1712 31005KT P6SM FEW080 SCT100 
     FM170300 02006KT P6SM FEW110 SCT240
       
KMLU 161146Z 1612/1712 17004KT P6SM SCT013 
     TEMPO 1612/1616 BKN015 
     FM161600 21009KT P6SM BKN035 
     FM161800 21010G17KT P6SM VCTS BKN100CB 
     FM170300 12003KT P6SM OVC250
       
KMMH 161120Z 1612/1712 28005KT P6SM SCT180 
     FM161500 10008KT P6SM SCT180 
     FM162200 27010KT P6SM VCTS SCT060CB BKN100 
     FM170300 VRB03KT P6SM SCT100
       
TAF KMMT 161500Z 1615/1721 22010G15KT 9999 FEW030 SCT250 QNH3003INS 
     BECMG 1620/1621 19009KT 9999 SCT055 SCT250 QNH2996INS 
     BECMG 1705/1706 21006KT 8000 BR FEW005 BKN030 QNH3001INS 
     BECMG 1713/1714 23006KT 9999 NSW BKN060 QNH3005INS TX33/1620Z TN22/1709Z
       
KMOB 161557Z 1616/1712 17006KT P6SM VCTS BKN030CB BKN120 
     TEMPO 1616/1618 VRB10G15KT 5SM TSRA BKN030CB 
     FM161800 16007KT P6SM VCTS BKN040CB BKN250 
     FM170000 16005KT P6SM FEW050 SCT120 BKN250
       
KMOD 161136Z 1612/1712 33008KT P6SM SCT250
       
KMOT 161623Z 1616/1712 30014G26KT P6SM OVC013 
     TEMPO 1616/1618 BKN009 OVC013 
     FM161900 32013G24KT P6SM SCT018 BKN022 
     FM170000 36008KT P6SM SCT029 BKN070 
     FM171100 35005KT P6SM SCT012 BKN023
       
KMPV 161556Z 1616/1712 VRB03KT P6SM OVC015 
     FM161800 32003KT P6SM VCSH OVC025 
     FM170000 00000KT P6SM SCT090 
     FM170200 00000KT 1SM BR BKN001
       
KMQY 161329Z 1613/1712 20007KT P6SM VCTS BKN050CB 
     FM161500 22012G20KT P6SM SCT050 BKN150 
     FM170200 20006KT P6SM FEW050 BKN150
       
KMRY 161139Z 1612/1712 24005KT P6SM OVC007 
     FM161800 29008KT P6SM BKN015 
     FM170300 24006KT P6SM OVC008
       
KMRB 161127Z 1612/1712 20007KT P6SM OVC100 
     FM161500 23009KT P6SM BKN035 
     FM162000 25011KT 6SM -SHRA VCTS BKN035CB 
     FM170000 23005KT 6SM -SHRA BKN060 
     FM170300 VRB03KT P6SM BKN120
       
KMSL 161359Z 1614/1712 24008KT P6SM BKN018 
     FM161600 22010G18KT P6SM VCTS SCT040CB SCT250 
     FM162300 20008KT P6SM VCTS SCT040CB SCT250 
     FM170300 19006KT P6SM BKN035 BKN080 OVC200
       
KMSO 161120Z 1612/1712 VRB04KT P6SM FEW120 
     FM162000 32011G18KT P6SM VCSH SCT070 BKN100 
     FM162300 01009KT P6SM VCTS FEW060CB BKN100 
     FM170400 VRB03KT P6SM BKN100
       
KMSN 161500Z 1615/1712 05009KT 5SM BR VCSH BKN006 OVC012 
     FM161800 06009KT P6SM OVC015 
     FM170300 06005KT P6SM BKN022 
     FM170400 VRB04KT P6SM SCT025 
     FM170800 VRB04KT P6SM BKN029
       
KMSP 161457Z 1615/1718 12007KT P6SM SCT020 BKN040 
     TEMPO 1615/1617 BKN020 
     FM170000 11005KT P6SM SCT080 
     FM170900 VRB03KT P6SM SCT012
       
KMSS 161153Z 1612/1712 22004KT P6SM BKN003 
     FM161300 24004KT P6SM SCT150 
     FM161900 34006KT P6SM SCT150 
     FM170200 00000KT 2SM BR SCT001
       
KMSY 161142Z 1612/1718 19004KT P6SM FEW035 SCT250 
     FM161800 14007KT P6SM SCT250 
     FM162000 19008KT P6SM VCTS BKN050CB 
     FM170000 16004KT P6SM BKN250
       
TAF AMD KMTC 161508Z 1615/1715 VRB06KT 9000 -SHRA BKN007 QNH2978INS 
     BECMG 1615/1617 VRB06KT 9999 NSW BKN015 QNH2980INS 
     BECMG 1620/1621 02006KT 9999 BKN020 OVC045 QNH2986INS TX18/1621Z TN11/1709Z
       
KMTH 161134Z 1612/1712 14009G14KT P6SM VCSH SCT025 SCT150 
     TEMPO 1613/1617 3SM TSRA SCT020CB BKN025 
     FM170200 12012G18KT P6SM VCSH FEW020 BKN100
       
KMTJ 161139Z 1612/1712 14008KT P6SM BKN110 
     FM161500 33008KT P6SM FEW100 SCT200 
     FM162100 33008G18KT P6SM SCT100 BKN200 
     FM170200 15009KT P6SM FEW090 SCT250
       
KMTN 161127Z 1612/1712 17005KT P6SM BKN150 
     FM161500 15010G17KT P6SM BKN090 
     FM162200 18009KT 6SM -SHRA VCTS OVC040CB 
     FM170200 21005KT P6SM BKN070
       
KMTW 161559Z 1616/1712 03009KT P6SM VCSH SCT030 OVC050 
     TEMPO 1616/1620 BKN030 
     FM162000 05008KT P6SM BKN040 
     FM170200 04004KT P6SM BKN070 
     FM170500 03002KT P6SM SCT150
       
KMWH 161120Z 1612/1712 VRB04KT P6SM SKC 
     FM161800 21007KT P6SM SKC 
     FM170200 24008KT P6SM FEW200 
     FM170600 28005KT P6SM FEW200
       
TAF KMXF 161100Z 1611/1717 19006KT 8000 BR FEW040 QNH3000INS 
     BECMG 1615/1616 27006KT 9999 NSW SCT065 QNH2992INS TX33/1621Z TN20/1611Z
       
KMYL 161123Z 1612/1712 VRB04KT P6SM SCT120 
     FM162000 31008KT P6SM BKN100 
     FM170200 VRB04KT P6SM BKN100
       
KMYR 161140Z 1612/1712 21004KT P6SM SCT020 SCT200 
     FM161400 19007KT P6SM SCT050 
     FM161800 18012KT P6SM FEW050 
     FM170400 21006KT P6SM SKC